Time;durP1;ratioP1;P1;durP2;ratioP2;P2;SDS_P1;SDS_P2;PMS_P1;PMS_P2;Temp;Humidity;BMP_temperature;BMP_pressure;BME280_temperature;BME280_humidity;BME280_pressure;Samples;Min_cycle;Max_cycle;Signal;HPM_P1;HPM_P2
2024/03/05 00:00:46;;;;;;;;;;;;;;;18.55;34.17;100730.50;4264197;27;20010;-57
2024/03/05 00:02:47;;;;;;;;;;;;;;;18.74;33.73;100734.56;4264999;27;20413;-56
2024/03/05 00:04:49;;;;;;;;;;;;;;;18.83;33.76;100733.91;4267835;27;19973;-56
2024/03/05 00:06:51;;;;;;;;;;;;;;;18.72;34.08;100728.50;4267929;27;20271;-57
2024/03/05 00:08:52;;;;;;;;;;;;;;;18.79;33.54;100732.44;4268007;27;20005;-57
2024/03/05 00:10:54;;;;;;;;;;;;;;;18.91;33.75;100725.38;4268191;27;19919;-57
2024/03/05 00:12:56;;;;;;;;;;;;;;;19.01;33.40;100728.28;4267971;27;19919;-57
2024/03/05 00:14:58;;;;;;;;;;;;;;;18.99;33.33;100723.91;4267550;27;19926;-57
2024/03/05 00:16:59;;;;;;;;;;;;;;;19.02;33.63;100730.84;4267858;27;19926;-57
2024/03/05 00:19:01;;;;;;;;;;;;;;;19.03;33.56;100724.53;4267914;27;20010;-57
2024/03/05 00:21:02;;;;;;;;;;;;;;;19.03;33.54;100735.22;4267854;27;19923;-57
2024/03/05 00:23:04;;;;;;;;;;;;;;;18.99;33.17;100731.91;4249636;27;19927;-57
2024/03/05 00:25:07;;;;;;;;;;;;;;;19.00;33.68;100735.41;4267902;27;20358;-57
2024/03/05 00:27:09;;;;;;;;;;;;;;;19.04;33.75;100730.72;4249260;27;19997;-57
2024/03/05 00:29:11;;;;;;;;;;;;;;;19.02;33.31;100722.84;4267188;27;19919;-57
2024/03/05 00:31:13;;;;;;;;;;;;;;;18.40;34.26;100737.75;4267440;27;19919;-56
2024/03/05 00:33:14;;;;;;;;;;;;;;;18.34;34.42;100732.84;4267801;27;19919;-56
2024/03/05 00:35:16;;;;;;;;;;;;;;;18.55;34.42;100734.97;4267725;27;20323;-57
2024/03/05 00:37:17;;;;;;;;;;;;;;;18.50;34.30;100730.81;4248999;27;19919;-57
2024/03/05 00:39:19;;;;;;;;;;;;;;;18.59;34.04;100725.81;4249196;27;20337;-57
2024/03/05 00:41:22;;;;;;;;;;;;;;;18.73;34.07;100725.72;4267414;27;20296;-57
2024/03/05 00:43:28;;;;;;;;;;;;;;;18.85;33.69;100729.31;4267138;27;19919;-57
2024/03/05 00:45:30;;;;;;;;;;;;;;;18.73;33.75;100724.88;4267548;27;19964;-56
2024/03/05 00:47:32;;;;;;;;;;;;;;;18.49;34.42;100729.13;4267552;27;20273;-57
2024/03/05 00:49:33;;;;;;;;;;;;;;;18.67;33.99;100728.81;4267445;27;19933;-58
2024/03/05 00:51:35;;;;;;;;;;;;;;;18.72;34.08;100736.47;4267333;27;20293;-56
2024/03/05 00:53:41;;;;;;;;;;;;;;;18.79;33.91;100725.28;4267459;27;19919;-55
2024/03/05 00:55:44;;;;;;;;;;;;;;;18.84;33.85;100739.13;4267287;27;19919;-56
2024/03/05 00:57:45;;;;;;;;;;;;;;;18.71;34.09;100729.44;4266870;27;19994;-55
2024/03/05 00:59:47;;;;;;;;;;;;;;;18.46;34.65;100731.16;4267087;27;19926;-56
2024/03/05 01:01:50;;;;;;;;;;;;;;;18.64;34.10;100735.19;4266954;27;20380;-55
2024/03/05 01:03:52;;;;;;;;;;;;;;;17.68;35.76;100732.72;4267050;27;19919;-56
2024/03/05 01:05:53;;;;;;;;;;;;;;;17.60;36.01;100743.03;4266748;27;20060;-55
2024/03/05 01:07:55;;;;;;;;;;;;;;;17.68;35.91;100732.72;4267092;27;20327;-56
2024/03/05 01:09:57;;;;;;;;;;;;;;;17.99;35.63;100723.59;4267108;27;19925;-56
2024/03/05 01:11:58;;;;;;;;;;;;;;;18.28;35.03;100734.09;4266759;27;19954;-55
2024/03/05 01:14:00;;;;;;;;;;;;;;;18.43;35.17;100734.00;4266932;27;19918;-57
2024/03/05 01:16:02;;;;;;;;;;;;;;;18.38;34.89;100731.66;4265845;27;19919;-56
2024/03/05 01:18:04;;;;;;;;;;;;;;;18.32;35.03;100726.75;4267030;27;19946;-56
2024/03/05 01:20:15;;;;;;;;;;;;;;;18.50;34.93;100724.66;4266850;27;20304;-56
2024/03/05 01:22:17;;;;;;;;;;;;;;;18.54;34.98;100725.28;4266895;27;19926;-57
2024/03/05 01:24:19;;;;;;;;;;;;;;;18.63;34.92;100732.66;4266929;27;19999;-57
2024/03/05 01:26:21;;;;;;;;;;;;;;;18.70;34.54;100727.72;4266604;27;19965;-57
2024/03/05 01:28:24;;;;;;;;;;;;;;;18.75;34.50;100731.78;4266805;27;19929;-57
2024/03/05 01:30:27;;;;;;;;;;;;;;;18.33;35.18;100737.28;4248196;27;19919;-57
2024/03/05 01:32:29;;;;;;;;;;;;;;;18.54;34.82;100727.94;4266714;27;19948;-57
2024/03/05 01:34:32;;;;;;;;;;;;;;;18.67;34.82;100726.97;4266624;27;19946;-57
2024/03/05 01:36:34;;;;;;;;;;;;;;;18.01;36.13;100731.50;4266719;27;20385;-57
2024/03/05 01:38:37;;;;;;;;;;;;;;;18.33;35.44;100726.63;4266474;27;19958;-56
2024/03/05 01:40:38;;;;;;;;;;;;;;;18.54;35.07;100719.97;4266393;27;20375;-57
2024/03/05 01:42:40;;;;;;;;;;;;;;;18.67;34.94;100721.66;4266363;27;19925;-54
2024/03/05 01:44:42;;;;;;;;;;;;;;;18.71;34.92;100719.63;4266702;27;19925;-57
2024/03/05 01:46:45;;;;;;;;;;;;;;;18.71;34.97;100722.28;4266427;27;19987;-58
2024/03/05 01:48:47;;;;;;;;;;;;;;;18.72;34.99;100721.34;4266597;27;19919;-55
2024/03/05 01:50:49;;;;;;;;;;;;;;;18.76;34.57;100722.84;4266127;27;19940;-57
2024/03/05 01:52:50;;;;;;;;;;;;;;;18.82;34.57;100718.88;4266309;27;19923;-56
2024/03/05 01:54:53;;;;;;;;;;;;;;;18.85;34.86;100721.34;4266056;27;19945;-56
2024/03/05 01:57:01;;;;;;;;;;;;;;;18.71;34.88;100718.78;4266121;27;19964;-56
2024/03/05 01:59:03;;;;;;;;;;;;;;;18.76;34.99;100716.63;4266078;27;20424;-57
2024/03/05 02:01:06;;;;;;;;;;;;;;;18.79;34.72;100716.44;4266046;27;19976;-56
2024/03/05 02:03:11;;;;;;;;;;;;;;;18.87;34.62;100710.56;4266155;27;20348;-56
2024/03/05 02:05:12;;;;;;;;;;;;;;;18.77;34.84;100715.69;4247846;27;20329;-57
2024/03/05 02:07:16;;;;;;;;;;;;;;;18.78;34.77;100720.91;4265846;27;20445;-56
2024/03/05 02:09:20;;;;;;;;;;;;;;;18.72;34.98;100724.00;4265733;27;20357;-56
2024/03/05 02:11:21;;;;;;;;;;;;;;;18.78;35.29;100728.06;4266055;27;19919;-56
2024/03/05 02:13:23;;;;;;;;;;;;;;;18.74;35.07;100721.25;4265838;27;20380;-56
2024/03/05 02:15:25;;;;;;;;;;;;;;;18.42;35.70;100725.19;4266019;27;19923;-57
2024/03/05 02:17:31;;;;;;;;;;;;;;;18.58;35.33;100726.75;4248268;27;19927;-55
2024/03/05 02:19:33;;;;;;;;;;;;;;;18.68;35.18;100731.34;4265869;27;19919;-55
2024/03/05 02:21:35;;;;;;;;;;;;;;;18.74;35.16;100724.75;4265912;27;19952;-55
2024/03/05 02:23:36;;;;;;;;;;;;;;;18.62;35.46;100725.63;4265945;27;20007;-57
2024/03/05 02:25:39;;;;;;;;;;;;;;;18.69;35.17;100729.56;4265311;27;20006;-56
2024/03/05 02:27:41;;;;;;;;;;;;;;;18.77;35.30;100723.69;4265630;27;20274;-56
2024/03/05 02:29:42;;;;;;;;;;;;;;;18.83;35.06;100724.13;4265707;27;19958;-57
2024/03/05 02:31:44;;;;;;;;;;;;;;;18.84;34.98;100714.28;4265703;27;20386;-57
2024/03/05 02:33:47;;;;;;;;;;;;;;;18.85;35.20;100713.34;4265644;27;19919;-56
2024/03/05 02:35:56;;;;;;;;;;;;;;;18.46;36.04;100709.84;4265647;27;19937;-56
2024/03/05 02:37:58;;;;;;;;;;;;;;;18.54;35.93;100707.47;4265709;27;19919;-57
2024/03/05 02:39:59;;;;;;;;;;;;;;;18.65;35.48;100712.94;4265184;27;19927;-57
2024/03/05 02:42:01;;;;;;;;;;;;;;;18.64;35.55;100715.69;4265212;27;20339;-56
2024/03/05 02:44:03;;;;;;;;;;;;;;;18.68;35.61;100711.88;4265682;27;19972;-57
2024/03/05 02:46:06;;;;;;;;;;;;;;;18.63;35.57;100720.16;4265488;27;20010;-56
2024/03/05 02:48:09;;;;;;;;;;;;;;;18.72;35.46;100717.84;4265438;27;19983;-56
2024/03/05 02:50:11;;;;;;;;;;;;;;;18.78;35.34;100717.41;4265304;27;19919;-53
2024/03/05 02:52:13;;;;;;;;;;;;;;;18.73;35.35;100711.53;4265396;27;19971;-56
2024/03/05 02:54:15;;;;;;;;;;;;;;;18.79;35.37;100708.44;4265064;27;19930;-56
2024/03/05 02:56:17;;;;;;;;;;;;;;;18.72;35.24;100708.00;4265310;27;19948;-56
2024/03/05 02:58:18;;;;;;;;;;;;;;;18.77;35.61;100703.25;4265133;27;19932;-57
2024/03/05 03:00:20;;;;;;;;;;;;;;;18.84;35.51;100707.13;4265194;27;20478;-56
2024/03/05 03:02:22;;;;;;;;;;;;;;;18.64;35.88;100713.88;4264996;27;19971;-56
2024/03/05 03:04:26;;;;;;;;;;;;;;;18.55;35.83;100714.53;4265084;27;19923;-56
2024/03/05 03:06:27;;;;;;;;;;;;;;;18.39;36.15;100714.72;4264955;27;19919;-56
2024/03/05 03:08:29;;;;;;;;;;;;;;;17.97;36.71;100719.34;4264990;27;19919;-56
2024/03/05 03:10:31;;;;;;;;;;;;;;;18.35;36.46;100710.59;4265031;27;20397;-56
2024/03/05 03:12:32;;;;;;;;;;;;;;;18.49;35.99;100714.94;4265207;27;19952;-56
2024/03/05 03:14:34;;;;;;;;;;;;;;;18.30;36.19;100721.53;4265302;27;20368;-56
2024/03/05 03:16:35;;;;;;;;;;;;;;;18.03;36.61;100718.94;4265084;27;19922;-56
2024/03/05 03:18:37;;;;;;;;;;;;;;;18.02;36.88;100726.06;4246943;27;19977;-56
2024/03/05 03:20:38;;;;;;;;;;;;;;;18.32;36.40;100724.97;4265084;27;19926;-56
2024/03/05 03:22:40;;;;;;;;;;;;;;;18.51;36.30;100721.03;4264725;27;19919;-56
2024/03/05 03:24:42;;;;;;;;;;;;;;;18.40;36.24;100736.91;4265104;27;19918;-56
2024/03/05 03:26:51;;;;;;;;;;;;;;;17.55;37.82;100719.38;4264943;27;20427;-56
2024/03/05 03:28:54;;;;;;;;;;;;;;;16.91;38.88;100735.78;4265179;27;20340;-56
2024/03/05 03:30:56;;;;;;;;;;;;;;;16.77;39.54;100718.03;4246761;27;19926;-57
2024/03/05 03:32:57;;;;;;;;;;;;;;;16.68;39.71;100724.75;4265093;27;20013;-56
2024/03/05 03:34:59;;;;;;;;;;;;;;;17.42;38.39;100719.31;4264979;27;19961;-57
2024/03/05 03:37:02;;;;;;;;;;;;;;;17.76;37.67;100727.75;4264324;27;19919;-56
2024/03/05 03:39:03;;;;;;;;;;;;;;;18.01;37.29;100726.19;4267515;27;19975;-56
2024/03/05 03:41:05;;;;;;;;;;;;;;;17.63;37.89;100729.50;4268323;27;19923;-57
2024/03/05 03:43:07;;;;;;;;;;;;;;;17.44;38.12;100722.75;4268484;27;19919;-56
2024/03/05 03:45:10;;;;;;;;;;;;;;;17.48;38.04;100724.22;4268466;27;19919;-56
2024/03/05 03:47:12;;;;;;;;;;;;;;;17.72;37.55;100726.25;4268355;27;19925;-56
2024/03/05 03:49:14;;;;;;;;;;;;;;;17.76;37.73;100729.56;4268322;27;20384;-56
2024/03/05 03:51:16;;;;;;;;;;;;;;;18.01;37.14;100727.03;4267961;27;19922;-58
2024/03/05 03:53:17;;;;;;;;;;;;;;;18.17;36.92;100728.66;4268296;27;20373;-56
2024/03/05 03:55:19;;;;;;;;;;;;;;;17.98;37.13;100729.03;4250024;27;19953;-55
2024/03/05 03:57:20;;;;;;;;;;;;;;;18.18;37.00;100730.38;4268130;27;19919;-56
2024/03/05 03:59:22;;;;;;;;;;;;;;;18.30;36.54;100732.19;4268098;27;20401;-56
2024/03/05 04:01:25;;;;;;;;;;;;;;;18.39;36.69;100732.53;4268484;27;19994;-56
2024/03/05 04:03:28;;;;;;;;;;;;;;;18.49;36.37;100728.25;4267792;27;19923;-53
2024/03/05 04:05:29;;;;;;;;;;;;;;;18.50;36.51;100728.16;4267717;27;20010;-55
2024/03/05 04:07:32;;;;;;;;;;;;;;;18.48;36.53;100735.41;4268037;27;20369;-57
2024/03/05 04:09:33;;;;;;;;;;;;;;;18.43;36.27;100734.00;4268078;27;19973;-55
2024/03/05 04:11:36;;;;;;;;;;;;;;;18.41;36.38;100730.59;4268382;27;19919;-57
2024/03/05 04:13:38;;;;;;;;;;;;;;;18.48;36.58;100742.53;4267808;27;19919;-56
2024/03/05 04:15:40;;;;;;;;;;;;;;;18.54;36.28;100736.78;4267934;27;19918;-57
2024/03/05 04:17:42;;;;;;;;;;;;;;;18.28;36.67;100736.75;4249569;27;20362;-57
2024/03/05 04:19:43;;;;;;;;;;;;;;;18.31;36.67;100741.88;4267965;27;19919;-57
2024/03/05 04:21:45;;;;;;;;;;;;;;;18.43;36.55;100734.00;4267578;27;19953;-56
2024/03/05 04:23:47;;;;;;;;;;;;;;;18.29;36.50;100735.81;4267803;27;19919;-57
2024/03/05 04:25:50;;;;;;;;;;;;;;;18.33;36.60;100736.44;4267964;27;20297;-57
2024/03/05 04:27:52;;;;;;;;;;;;;;;18.28;36.77;100735.91;4267718;27;20366;-57
2024/03/05 04:29:56;;;;;;;;;;;;;;;18.40;36.48;100736.91;4267747;27;19919;-57
2024/03/05 04:32:08;;;;;;;;;;;;;;;18.52;36.53;100734.22;4267591;27;19919;-57
2024/03/05 04:34:13;;;;;;;;;;;;;;;18.56;36.30;100734.88;4267665;27;19918;-56
2024/03/05 04:36:15;;;;;;;;;;;;;;;18.58;36.49;100735.63;4267434;27;19923;-56
2024/03/05 04:38:17;;;;;;;;;;;;;;;18.59;36.14;100733.81;4267696;27;20358;-56
2024/03/05 04:40:18;;;;;;;;;;;;;;;18.52;36.33;100736.06;4267503;27;19925;-56
2024/03/05 04:42:22;;;;;;;;;;;;;;;18.55;36.10;100734.97;4267393;27;20006;-58
2024/03/05 04:44:25;;;;;;;;;;;;;;;18.63;36.41;100740.63;4267198;27;20360;-57
2024/03/05 04:46:27;;;;;;;;;;;;;;;18.65;36.19;100739.56;4267593;27;20480;-57
2024/03/05 04:48:29;;;;;;;;;;;;;;;18.55;36.65;100734.97;4249252;27;19972;-58
2024/03/05 04:50:30;;;;;;;;;;;;;;;18.64;36.18;100745.84;4267081;27;19994;-57
2024/03/05 04:52:33;;;;;;;;;;;;;;;18.66;36.27;100737.75;4267426;27;20321;-56
2024/03/05 04:54:35;;;;;;;;;;;;;;;18.67;36.02;100734.97;4267274;27;19994;-57
2024/03/05 04:56:36;;;;;;;;;;;;;;;18.69;36.25;100737.56;4267679;27;20010;-57
2024/03/05 04:58:38;;;;;;;;;;;;;;;17.76;37.85;100742.88;4267280;27;19919;-57
2024/03/05 05:00:40;;;;;;;;;;;;;;;17.57;38.19;100744.09;4267210;27;20297;-57
2024/03/05 05:02:42;;;;;;;;;;;;;;;17.93;37.59;100745.25;4267056;27;19962;-57
2024/03/05 05:04:43;;;;;;;;;;;;;;;17.91;37.89;100739.22;4266713;27;19971;-57
2024/03/05 05:06:45;;;;;;;;;;;;;;;17.41;38.49;100746.84;4267008;27;19919;-57
2024/03/05 05:08:49;;;;;;;;;;;;;;;17.82;37.75;100745.97;4267101;27;20419;-56
2024/03/05 05:10:51;;;;;;;;;;;;;;;17.94;37.72;100746.97;4266978;27;19919;-57
2024/03/05 05:12:53;;;;;;;;;;;;;;;18.00;37.82;100743.09;4266911;27;19919;-56
2024/03/05 05:14:54;;;;;;;;;;;;;;;18.19;37.86;100745.38;4267225;27;19919;-57
2024/03/05 05:16:56;;;;;;;;;;;;;;;18.31;37.37;100746.34;4267086;27;20377;-57
2024/03/05 05:18:58;;;;;;;;;;;;;;;18.38;37.34;100744.97;4266556;27;19919;-57
2024/03/05 05:21:01;;;;;;;;;;;;;;;18.45;37.00;100746.25;4266776;27;19919;-57
2024/03/05 05:23:03;;;;;;;;;;;;;;;18.52;36.87;100744.88;4266703;27;19968;-57
2024/03/05 05:25:06;;;;;;;;;;;;;;;18.54;37.02;100747.44;4266917;27;19932;-57
2024/03/05 05:27:09;;;;;;;;;;;;;;;18.56;37.04;100747.34;4266753;27;20006;-57
2024/03/05 05:29:11;;;;;;;;;;;;;;;18.44;37.34;100751.69;4266797;27;20305;-57
2024/03/05 05:31:27;;;;;;;;;;;;;;;18.35;37.37;100753.19;4266585;27;19919;-57
2024/03/05 05:33:29;;;;;;;;;;;;;;;18.49;37.08;100758.44;4266377;27;20320;-57
2024/03/05 05:35:31;;;;;;;;;;;;;;;18.53;37.14;100748.41;4266502;27;19929;-57
2024/03/05 05:37:32;;;;;;;;;;;;;;;18.60;37.01;100746.16;4266719;27;19970;-57
2024/03/05 05:39:34;;;;;;;;;;;;;;;18.61;36.96;100745.22;4266477;27;19925;-56
2024/03/05 05:41:36;;;;;;;;;;;;;;;18.64;36.76;100753.84;4266597;27;19922;-56
2024/03/05 05:43:38;;;;;;;;;;;;;;;18.66;36.68;100749.28;4266476;27;20062;-56
2024/03/05 05:45:39;;;;;;;;;;;;;;;18.44;37.18;100754.34;4266365;27;19962;-57
2024/03/05 05:47:49;;;;;;;;;;;;;;;18.41;37.23;100754.56;4266038;27;19919;-57
2024/03/05 05:49:51;;;;;;;;;;;;;;;18.52;37.07;100758.19;4266415;27;20311;-56
2024/03/05 05:51:53;;;;;;;;;;;;;;;18.60;37.08;100759.47;4266355;27;19963;-56
2024/03/05 05:53:55;;;;;;;;;;;;;;;18.66;36.77;100759.06;4266535;27;19918;-56
2024/03/05 05:55:56;;;;;;;;;;;;;;;18.71;36.68;100762.25;4266315;27;20346;-57
2024/03/05 05:57:58;;;;;;;;;;;;;;;18.35;37.46;100764.69;4266115;27;19923;-56
2024/03/05 05:59:59;;;;;;;;;;;;;;;18.16;38.00;100772.19;4266249;27;19919;-57
2024/03/05 06:02:01;;;;;;;;;;;;;;;18.31;37.58;100767.66;4265327;27;19925;-57
2024/03/05 06:04:05;;;;;;;;;;;;;;;18.37;37.27;100764.56;4266145;27;20359;-57
2024/03/05 06:06:07;;;;;;;;;;;;;;;18.52;37.02;100770.69;4265974;27;19966;-57
2024/03/05 06:08:12;;;;;;;;;;;;;;;18.52;37.10;100773.34;4266153;27;20293;-56
2024/03/05 06:10:14;;;;;;;;;;;;;;;18.61;36.90;100770.03;4266103;27;19919;-57
2024/03/05 06:12:16;;;;;;;;;;;;;;;18.64;36.86;100777.81;4266019;27;19925;-56
2024/03/05 06:14:21;;;;;;;;;;;;;;;18.66;37.18;100773.25;4266119;27;19919;-56
2024/03/05 06:16:22;;;;;;;;;;;;;;;18.06;37.85;100773.75;4265870;27;20302;-56
2024/03/05 06:18:24;;;;;;;;;;;;;;;18.17;37.83;100773.91;4265887;27;19953;-57
2024/03/05 06:20:29;;;;;;;;;;;;;;;18.28;37.38;100773.19;4265662;27;20009;-56
2024/03/05 06:22:30;;;;;;;;;;;;;;;18.39;37.21;100769.81;4266036;27;19962;-57
2024/03/05 06:24:35;;;;;;;;;;;;;;;18.50;36.97;100772.59;4265914;27;19931;-57
2024/03/05 06:26:38;;;;;;;;;;;;;;;18.56;36.89;100766.84;4265823;27;19919;-56
2024/03/05 06:28:42;;;;;;;;;;;;;;;17.79;38.08;100769.25;4265895;27;19942;-57
2024/03/05 06:30:46;;;;;;;;;;;;;;;17.65;38.60;100773.66;4265369;27;19941;-57
2024/03/05 06:32:48;;;;;;;;;;;;;;;17.76;38.71;100780.97;4265653;27;20014;-56
2024/03/05 06:34:50;;;;;;;;;;;;;;;18.09;38.01;100770.91;4265709;27;19998;-56
2024/03/05 06:36:53;;;;;;;;;;;;;;;17.70;38.45;100776.91;4265368;27;19979;-56
2024/03/05 06:38:58;;;;;;;;;;;;;;;17.97;38.00;100781.41;4265448;27;19919;-56
2024/03/05 06:40:59;;;;;;;;;;;;;;;18.04;37.58;100781.84;4265566;27;19919;-56
2024/03/05 06:43:05;;;;;;;;;;;;;;;17.89;38.43;100786.34;4265612;27;19969;-56
2024/03/05 06:45:08;;;;;;;;;;;;;;;18.09;37.69;100779.72;4265181;27;19918;-56
2024/03/05 06:47:12;;;;;;;;;;;;;;;17.74;38.25;100790.88;4247107;27;19925;-55
2024/03/05 06:49:14;;;;;;;;;;;;;;;18.04;37.71;100793.38;4247046;27;20405;-54
2024/03/05 06:51:26;;;;;;;;;;;;;;;18.25;37.37;100792.88;4265601;27;20438;-55
2024/03/05 06:58:09;;;;;;;;;;;;;;;18.25;37.15;100798.22;4265510;27;19918;-58
2024/03/05 07:00:17;;;;;;;;;;;;;;;17.47;38.73;100804.09;4264931;27;19919;-56
2024/03/05 07:02:19;;;;;;;;;;;;;;;17.85;37.89;100796.34;4265174;27;20342;-57
2024/03/05 07:04:20;;;;;;;;;;;;;;;18.10;37.75;100794.75;4265304;27;19919;-57
2024/03/05 07:06:23;;;;;;;;;;;;;;;18.21;37.49;100796.69;4265067;27;19919;-57
2024/03/05 07:08:25;;;;;;;;;;;;;;;18.33;37.19;100803.00;4265135;27;19922;-57
2024/03/05 07:10:31;;;;;;;;;;;;;;;18.26;37.39;100805.22;4265022;27;19923;-57
2024/03/05 07:12:33;;;;;;;;;;;;;;;18.19;37.45;100806.63;4264308;27;19919;-57
2024/03/05 07:14:34;;;;;;;;;;;;;;;18.04;37.70;100800.47;4264602;27;20333;-57
2024/03/05 07:16:36;;;;;;;;;;;;;;;17.99;38.01;100808.75;4264971;27;19919;-57
2024/03/05 07:18:37;;;;;;;;;;;;;;;18.19;37.52;100803.94;4264953;27;20334;-56
2024/03/05 07:20:45;;;;;;;;;;;;;;;18.34;37.32;100815.38;4264935;27;19919;-57
2024/03/05 07:22:47;;;;;;;;;;;;;;;18.34;37.09;100816.22;4265053;27;19963;-55
2024/03/05 07:24:50;;;;;;;;;;;;;;;18.27;37.39;100822.06;4265135;27;19970;-56
2024/03/05 07:26:51;;;;;;;;;;;;;;;18.34;37.48;100812.72;4265060;27;20393;-59
2024/03/05 07:29:08;;;;;;;;;;;;;;;18.43;37.39;100814.75;4264558;27;19990;-57
2024/03/05 07:31:10;;;;;;;;;;;;;;;18.30;37.48;100814.72;4265013;27;19927;-57
2024/03/05 07:33:12;;;;;;;;;;;;;;;18.38;37.27;100816.03;4265000;27;20018;-57
2024/03/05 07:35:15;;;;;;;;;;;;;;;18.18;37.76;100815.53;4246673;28;19947;-56
2024/03/05 07:37:18;;;;;;;;;;;;;;;18.32;37.38;100818.16;4264963;27;19967;-57
2024/03/05 07:39:24;;;;;;;;;;;;;;;17.71;38.48;100821.16;4264917;27;20347;-56
2024/03/05 07:41:27;;;;;;;;;;;;;;;17.44;38.85;100822.91;4264818;27;19919;-57
2024/03/05 07:43:35;;;;;;;;;;;;;;;17.09;39.25;100825.00;4264683;27;19969;-56
2024/03/05 07:45:37;;;;;;;;;;;;;;;17.56;38.89;100827.47;4265045;27;19940;-55
2024/03/05 07:47:39;;;;;;;;;;;;;;;17.60;38.84;100822.81;4264807;27;19922;-53
2024/03/05 07:49:41;;;;;;;;;;;;;;;17.88;38.12;100821.88;4264911;27;20390;-56
2024/03/05 07:51:43;;;;;;;;;;;;;;;17.96;37.86;100826.72;4264815;27;19968;-56
2024/03/05 07:53:46;;;;;;;;;;;;;;;17.86;38.08;100827.31;4264898;27;20292;-56
2024/03/05 07:55:47;;;;;;;;;;;;;;;18.02;37.99;100829.84;4264879;27;19925;-56
2024/03/05 07:57:52;;;;;;;;;;;;;;;18.26;37.41;100825.69;4264506;27;20341;-57
2024/03/05 07:59:54;;;;;;;;;;;;;;;18.33;37.57;100826.97;4264651;27;19919;-56
2024/03/05 08:01:57;;;;;;;;;;;;;;;18.10;37.05;100832.00;4264626;27;19927;-57
2024/03/05 08:03:59;;;;;;;;;;;;;;;17.72;38.12;100830.00;4264531;27;20006;-57
2024/03/05 08:06:01;;;;;;;;;;;;;;;17.73;38.13;100835.22;4264602;27;20397;-57
2024/03/05 08:08:04;;;;;;;;;;;;;;;17.57;38.54;100837.16;4264612;27;19918;-57
2024/03/05 08:10:09;;;;;;;;;;;;;;;17.88;37.67;100844.00;4264650;27;19919;-56
2024/03/05 08:12:11;;;;;;;;;;;;;;;17.76;37.80;100843.97;4264404;27;19971;-57
2024/03/05 08:14:12;;;;;;;;;;;;;;;17.63;38.44;100843.88;4264758;27;20406;-56
2024/03/05 08:16:14;;;;;;;;;;;;;;;17.64;38.39;100851.75;4264645;27;19926;-56
2024/03/05 08:18:15;;;;;;;;;;;;;;;16.99;39.11;100854.91;4264683;27;19918;-55
2024/03/05 08:20:18;;;;;;;;;;;;;;;16.93;39.24;100862.28;4264568;27;19942;-54
2024/03/05 08:22:20;;;;;;;;;;;;;;;17.33;38.63;100860.81;4264595;27;20316;-58
2024/03/05 08:24:22;;;;;;;;;;;;;;;16.86;39.21;100855.59;4265612;27;19962;-56
2024/03/05 08:26:23;;;;;;;;;;;;;;;17.15;38.92;100860.13;4249129;27;19970;-56
2024/03/05 08:28:25;;;;;;;;;;;;;;;17.30;38.43;100864.50;4267891;27;19991;-57
2024/03/05 08:30:31;;;;;;;;;;;;;;;17.59;37.87;100861.81;4267611;27;19918;-57
2024/03/05 08:32:33;;;;;;;;;;;;;;;17.26;38.31;100860.31;4267600;27;19918;-57
2024/03/05 08:34:36;;;;;;;;;;;;;;;17.27;38.61;100866.47;4267646;27;19964;-57
2024/03/05 08:36:39;;;;;;;;;;;;;;;17.58;37.99;100869.91;4267736;27;19919;-57
2024/03/05 08:38:41;;;;;;;;;;;;;;;17.63;37.78;100828.78;4267651;27;19948;-55
2024/03/05 08:40:42;;;;;;;;;;;;;;;18.03;37.53;100871.50;4267543;27;19919;-57
2024/03/05 08:42:48;;;;;;;;;;;;;;;17.31;37.73;100871.53;4267316;27;19919;-57
2024/03/05 08:44:49;;;;;;;;;;;;;;;17.11;38.17;100883.38;4267469;27;20009;-57
2024/03/05 08:46:52;;;;;;;;;;;;;;;16.99;38.91;100887.63;4267554;27;19919;-56
2024/03/05 08:48:54;;;;;;;;;;;;;;;17.48;38.27;100883.78;4267427;27;19964;-55
2024/03/05 08:50:58;;;;;;;;;;;;;;;17.31;38.05;100884.81;4249086;27;20001;-57
2024/03/05 08:53:02;;;;;;;;;;;;;;;17.08;38.30;100883.56;4267557;27;19987;-57
2024/03/05 08:55:10;;;;;;;;;;;;;;;17.52;38.16;100889.75;4267363;27;20385;-57
2024/03/05 08:57:12;;;;;;;;;;;;;;;17.13;37.91;100899.22;4267220;27;19960;-57
2024/03/05 08:59:14;;;;;;;;;;;;;;;16.91;38.45;100903.13;4267335;27;19919;-57
2024/03/05 09:01:15;;;;;;;;;;;;;;;16.83;38.76;100900.06;4267358;27;19918;-57
2024/03/05 09:03:17;;;;;;;;;;;;;;;17.36;38.37;100904.03;4266856;27;19954;-56
2024/03/05 09:05:19;;;;;;;;;;;;;;;17.26;38.06;100910.81;4266976;27;19919;-56
2024/03/05 09:07:21;;;;;;;;;;;;;;;17.34;37.84;100910.34;4266982;27;19925;-57
2024/03/05 09:09:23;;;;;;;;;;;;;;;17.64;37.58;100910.25;4248716;27;19927;-57
2024/03/05 09:11:24;;;;;;;;;;;;;;;17.59;37.24;100917.69;4266906;27;19919;-56
2024/03/05 09:13:26;;;;;;;;;;;;;;;17.68;37.37;100918.91;4267286;27;19929;-57
2024/03/05 09:15:27;;;;;;;;;;;;;;;17.28;37.97;100918.69;4267069;27;19937;-57
2024/03/05 09:17:29;;;;;;;;;;;;;;;17.66;37.77;100923.50;4267009;27;19948;-57
2024/03/05 09:19:31;;;;;;;;;;;;;;;17.65;37.46;100924.44;4267005;27;19919;-57
2024/03/05 09:21:35;;;;;;;;;;;;;;;17.85;36.83;100924.03;4266947;27;19919;-57
2024/03/05 09:23:37;;;;;;;;;;;;;;;17.97;36.63;100924.25;4266998;27;19972;-57
2024/03/05 09:25:41;;;;;;;;;;;;;;;17.69;37.18;100931.25;4266411;27;20386;-57
2024/03/05 09:27:44;;;;;;;;;;;;;;;17.44;36.99;100937.22;4266655;27;19922;-57
2024/03/05 09:29:47;;;;;;;;;;;;;;;17.37;37.71;100942.91;4266623;27;19919;-56
2024/03/05 09:31:49;;;;;;;;;;;;;;;17.13;37.76;100947.06;4266712;27;19939;-56
2024/03/05 09:33:51;;;;;;;;;;;;;;;17.00;37.96;100946.94;4266562;27;19919;-57
2024/03/05 09:35:52;;;;;;;;;;;;;;;17.09;38.15;100951.72;4265661;27;20399;-57
2024/03/05 09:37:54;;;;;;;;;;;;;;;17.54;37.78;100957.00;4266617;27;20301;-57
2024/03/05 09:39:56;;;;;;;;;;;;;;;17.82;37.13;100957.97;4266348;27;19919;-57
2024/03/05 09:41:58;;;;;;;;;;;;;;;17.91;36.88;100956.53;4266513;27;19958;-57
2024/03/05 09:44:01;;;;;;;;;;;;;;;17.82;36.91;100963.28;4266457;27;19950;-57
2024/03/05 09:46:06;;;;;;;;;;;;;;;17.80;36.67;100960.72;4266666;27;19925;-55
2024/03/05 09:48:09;;;;;;;;;;;;;;;17.88;36.69;100965.56;4266731;27;20375;-54
2024/03/05 09:50:11;;;;;;;;;;;;;;;17.84;36.85;100966.72;4266526;27;19926;-57
2024/03/05 09:52:13;;;;;;;;;;;;;;;17.71;36.95;100963.94;4266528;27;20274;-57
2024/03/05 09:54:15;;;;;;;;;;;;;;;17.87;36.65;100963.84;4265925;27;20405;-57
2024/03/05 09:56:16;;;;;;;;;;;;;;;17.89;36.30;100975.25;4266088;27;19948;-56
2024/03/05 09:58:30;;;;;;;;;;;;;;;17.81;36.36;100972.22;4266216;27;20362;-57
2024/03/05 10:00:31;;;;;;;;;;;;;;;17.91;36.66;100969.84;4266451;27;19919;-57
2024/03/05 10:02:33;;;;;;;;;;;;;;;18.07;36.56;100972.41;4266123;27;19919;-57
2024/03/05 10:04:36;;;;;;;;;;;;;;;18.17;36.40;100970.88;4266134;27;20014;-55
2024/03/05 10:06:38;;;;;;;;;;;;;;;18.24;36.06;100977.53;4265893;27;19919;-55
2024/03/05 10:08:41;;;;;;;;;;;;;;;18.22;35.65;100978.59;4265610;27;20313;-59
2024/03/05 10:10:43;;;;;;;;;;;;;;;17.87;36.55;100988.66;4265955;27;20389;-56
2024/03/05 10:12:45;;;;;;;;;;;;;;;18.13;36.24;100988.00;4265970;27;19919;-52
2024/03/05 10:14:46;;;;;;;;;;;;;;;17.89;36.34;100986.75;4265975;27;19918;-53
2024/03/05 10:16:57;;;;;;;;;;;;;;;18.14;36.36;100990.56;4266148;27;20403;-56
2024/03/05 10:18:59;;;;;;;;;;;;;;;18.24;36.24;100988.19;4247490;27;19919;-57
2024/03/05 10:21:14;;;;;;;;;;;;;;;17.89;36.51;100996.53;4247469;27;20006;-57
2024/03/05 10:23:15;;;;;;;;;;;;;;;18.00;36.24;100996.75;4265759;27;20308;-57
2024/03/05 10:25:17;;;;;;;;;;;;;;;17.89;36.56;101004.53;4265559;27;19926;-56
2024/03/05 10:27:28;;;;;;;;;;;;;;;18.08;36.50;101000.75;4265995;27;19919;-58
2024/03/05 10:29:34;;;;;;;;;;;;;;;18.15;35.80;101010.06;4265614;27;19930;-56
2024/03/05 10:31:40;;;;;;;;;;;;;;;18.22;35.78;101000.72;4265779;27;19926;-56
2024/03/05 10:33:41;;;;;;;;;;;;;;;18.27;35.78;101005.75;4265670;27;19925;-56